createdAt,value
2023-04-01T00:02:06.130Z,10.59
2023-04-01T00:04:33.816Z,10.55
2023-04-01T00:07:02.572Z,10.58
2023-04-01T00:09:30.567Z,10.63
2023-04-01T00:11:58.075Z,10.60
2023-04-01T00:14:26.924Z,10.59
2023-04-01T00:16:54.609Z,10.60
2023-04-01T00:19:22.172Z,10.54
2023-04-01T00:21:49.863Z,10.70
2023-04-01T00:24:17.378Z,10.57
2023-04-01T00:26:45.497Z,10.63
2023-04-01T00:29:12.984Z,10.58
2023-04-01T00:31:41.900Z,10.66
2023-04-01T00:34:09.568Z,10.60
2023-04-01T00:36:37.078Z,10.71
2023-04-01T00:39:04.645Z,10.68
2023-04-01T00:41:32.143Z,10.69
2023-04-01T00:44:18.988Z,10.69
2023-04-01T00:46:48.603Z,10.64
2023-04-01T00:49:18.540Z,10.53
2023-04-01T00:51:49.732Z,10.60
2023-04-01T00:54:19.550Z,10.60
2023-04-01T00:56:50.743Z,10.59
2023-04-01T00:59:22.906Z,10.54
2023-04-01T01:01:52.058Z,10.45
2023-04-01T01:04:25.206Z,10.55
2023-04-01T01:06:59.439Z,10.44
2023-04-01T01:09:42.750Z,10.33
2023-04-01T01:12:15.516Z,10.19
2023-04-01T01:15:08.381Z,10.25
2023-04-01T01:17:49.830Z,10.44
2023-04-01T01:20:49.886Z,10.54
2023-04-01T01:23:46.580Z,10.64
2023-04-01T01:26:40.354Z,10.60
2023-04-01T01:29:19.885Z,10.52
2023-04-01T01:31:58.631Z,10.61
2023-04-01T01:34:38.204Z,10.66
2023-04-01T01:37:12.228Z,10.70
2023-04-01T01:39:43.426Z,10.65
2023-04-01T01:42:13.819Z,10.69
2023-04-01T01:44:44.883Z,10.73
2023-04-01T01:47:13.604Z,10.66
2023-04-01T01:49:43.239Z,10.68
2023-04-01T01:52:12.607Z,10.69
2023-04-01T01:54:49.492Z,10.56
2023-04-01T01:57:19.087Z,10.56
2023-04-01T01:59:47.882Z,10.62
2023-04-01T02:02:17.031Z,10.58
2023-04-01T02:04:47.243Z,10.64
2023-04-01T02:07:21.865Z,10.85
2023-04-01T02:09:51.391Z,10.87
2023-04-01T02:12:21.265Z,10.80
2023-04-01T02:14:54.284Z,10.75
2023-04-01T02:17:23.195Z,10.60
2023-04-01T02:19:55.518Z,10.55
2023-04-01T02:22:28.075Z,10.51
2023-04-01T02:24:59.408Z,10.44
2023-04-01T02:27:27.349Z,10.38
2023-04-01T02:29:55.140Z,10.47
2023-04-01T02:32:23.036Z,10.43
2023-04-01T02:34:51.347Z,10.45
2023-04-01T02:37:19.685Z,10.50
2023-04-01T02:39:48.510Z,10.36
2023-04-01T02:42:16.501Z,10.35
2023-04-01T02:44:43.967Z,10.16
2023-04-01T02:47:11.459Z,10.28
2023-04-01T02:49:38.976Z,10.28
2023-04-01T02:52:06.664Z,10.29
2023-04-01T02:54:40.378Z,10.30
2023-04-01T02:57:09.266Z,10.35
2023-04-01T02:59:36.716Z,10.39
2023-04-01T03:02:04.241Z,10.26
2023-04-01T03:04:31.725Z,10.40
2023-04-01T03:06:59.343Z,10.42
2023-04-01T03:09:26.880Z,10.36
2023-04-01T03:11:54.337Z,10.21
2023-04-01T03:14:23.223Z,10.22
2023-04-01T03:16:50.782Z,10.38
2023-04-01T03:19:18.263Z,10.40
2023-04-01T03:21:45.738Z,10.33
2023-04-01T03:24:13.186Z,10.42
2023-04-01T03:26:40.621Z,10.28
2023-04-01T03:29:08.060Z,10.32
2023-04-01T03:31:36.819Z,10.29
2023-04-01T03:34:04.264Z,10.40
2023-04-01T03:36:31.752Z,10.33
2023-04-01T03:38:59.253Z,10.17
2023-04-01T03:41:27.334Z,10.10
2023-04-01T03:43:55.861Z,10.02
2023-04-01T03:46:23.389Z,10.01
2023-04-01T03:48:52.291Z,10.03
2023-04-01T03:51:19.748Z,10.02
2023-04-01T03:53:47.170Z,10.08
2023-04-01T03:56:14.652Z,10.13
2023-04-01T03:58:42.075Z,10.20
2023-04-01T04:01:17.721Z,10.18
2023-04-01T04:03:46.836Z,10.19
2023-04-01T04:06:16.275Z,10.33
2023-04-01T04:08:44.106Z,10.26
2023-04-01T04:11:11.854Z,10.22
2023-04-01T04:13:39.325Z,10.24
2023-04-01T04:16:07.355Z,10.25
2023-04-01T04:18:35.521Z,10.34
2023-04-01T04:21:03.239Z,10.48
2023-04-01T04:23:34.366Z,10.23
2023-04-01T04:26:03.611Z,10.37
2023-04-01T04:28:31.189Z,10.38
2023-04-01T04:30:59.071Z,10.41
2023-04-01T04:33:27.338Z,10.52
2023-04-01T04:35:58.120Z,10.57
2023-04-01T04:38:26.113Z,10.40
2023-04-01T04:40:55.287Z,10.49
2023-04-01T04:43:22.899Z,10.47
2023-04-01T04:45:50.490Z,10.31
2023-04-01T04:48:21.067Z,10.20
2023-04-01T04:50:50.148Z,10.17
2023-04-01T04:53:19.149Z,10.20
2023-04-01T04:55:47.039Z,10.31
2023-04-01T04:58:16.137Z,10.31
2023-04-01T05:00:44.355Z,10.41
2023-04-01T05:03:12.887Z,10.48
2023-04-01T05:05:41.493Z,10.56
2023-04-01T05:08:08.991Z,10.62
2023-04-01T05:10:36.784Z,10.60
2023-04-01T05:13:04.259Z,10.68
2023-04-01T05:15:33.327Z,10.63
2023-04-01T05:18:01.085Z,10.57
2023-04-01T05:20:28.705Z,10.66
2023-04-01T05:22:58.128Z,10.83
2023-04-01T05:25:25.875Z,10.88
2023-04-01T05:27:53.355Z,10.90
2023-04-01T05:30:21.023Z,11.10
2023-04-01T05:32:49.899Z,10.91
2023-04-01T05:35:17.558Z,10.92
2023-04-01T05:37:45.229Z,10.97
2023-04-01T05:40:13.034Z,10.80
2023-04-01T05:42:40.710Z,10.81
2023-04-01T05:45:09.879Z,10.78
2023-04-01T05:47:37.480Z,10.63
2023-04-01T05:50:07.040Z,10.69
2023-04-01T05:52:34.518Z,10.78
2023-04-01T05:55:02.013Z,10.83
2023-04-01T05:57:29.513Z,10.82
2023-04-01T05:59:57.062Z,10.87
2023-04-01T06:02:24.751Z,11.03
2023-04-01T06:05:03.952Z,11.00
2023-04-01T06:07:33.048Z,10.90
2023-04-01T06:10:01.695Z,10.87
2023-04-01T06:12:43.079Z,10.78
2023-04-01T06:15:22.302Z,10.94
2023-04-01T06:18:03.233Z,10.85
2023-04-01T06:20:39.588Z,11.02
2023-04-01T06:23:23.473Z,10.97
2023-04-01T06:26:02.587Z,10.83
2023-04-01T06:28:44.960Z,10.94
2023-04-01T06:31:23.743Z,11.01
2023-04-01T06:34:08.300Z,11.01
2023-04-01T06:37:00.796Z,11.04
2023-04-01T06:39:41.488Z,10.97
2023-04-01T06:42:27.717Z,10.95
2023-04-01T06:45:09.065Z,10.77
2023-04-01T06:47:47.082Z,10.64
2023-04-01T06:50:23.801Z,10.88
2023-04-01T06:53:00.302Z,10.94
2023-04-01T06:55:36.652Z,11.01
2023-04-01T06:58:07.293Z,11.06
2023-04-01T07:00:38.719Z,11.07
2023-04-01T07:03:19.948Z,11.11
2023-04-01T07:05:47.599Z,11.13
2023-04-01T07:08:19.890Z,11.23
2023-04-01T07:10:55.585Z,11.31
2023-04-01T07:13:27.546Z,11.16
2023-04-01T07:16:08.869Z,11.05
2023-04-01T07:18:43.557Z,11.23
2023-04-01T07:21:21.543Z,11.15
2023-04-01T07:23:51.027Z,11.04
2023-04-01T07:26:22.639Z,11.05
2023-04-01T07:28:50.732Z,11.15
2023-04-01T07:31:26.340Z,11.19
2023-04-01T07:34:03.420Z,11.35
2023-04-01T07:36:40.384Z,11.21
2023-04-01T07:39:22.572Z,11.30
2023-04-01T07:41:58.962Z,11.39
2023-04-01T07:44:33.189Z,11.24
2023-04-01T07:47:33.521Z,11.09
2023-04-01T07:50:11.109Z,11.20
2023-04-01T07:52:46.224Z,11.15
2023-04-01T07:55:20.417Z,11.22
2023-04-01T07:57:55.763Z,11.20
2023-04-01T08:00:26.716Z,11.15
2023-04-01T08:03:10.479Z,11.04
2023-04-01T08:05:46.874Z,11.25
2023-04-01T08:08:20.135Z,11.43
2023-04-01T08:10:54.379Z,11.57
2023-04-01T08:13:37.027Z,11.67
2023-04-01T08:16:14.737Z,11.66
2023-04-01T08:18:51.623Z,11.66
2023-04-01T08:21:24.153Z,11.60
2023-04-01T08:23:54.325Z,11.58
2023-04-01T08:26:30.575Z,11.63
2023-04-01T08:29:04.454Z,11.57
2023-04-01T08:31:36.722Z,11.51
2023-04-01T08:34:06.852Z,11.72
2023-04-01T08:36:38.990Z,11.57
2023-04-01T08:39:11.880Z,11.44
2023-04-01T08:42:00.976Z,11.53
2023-04-01T08:45:01.117Z,11.43
2023-04-01T08:47:44.303Z,11.45
2023-04-01T08:50:35.158Z,11.36
2023-04-01T08:53:08.839Z,11.22
2023-04-01T08:55:48.880Z,11.20
2023-04-01T08:58:55.350Z,11.33
2023-04-01T09:01:28.522Z,11.20
2023-04-01T09:04:16.347Z,11.01
2023-04-01T09:06:57.701Z,10.88
2023-04-01T09:09:44.249Z,11.14
2023-04-01T09:12:41.922Z,11.37
2023-04-01T09:15:50.841Z,11.43
2023-04-01T09:18:46.198Z,11.61
2023-04-01T09:21:31.607Z,11.57
2023-04-01T09:24:23.627Z,11.29
2023-04-01T09:27:17.002Z,11.12
2023-04-01T09:30:01.398Z,11.39
2023-04-01T09:33:17.047Z,11.24
2023-04-01T09:35:49.334Z,11.37
2023-04-01T09:38:31.963Z,11.36
2023-04-01T09:41:04.397Z,11.25
2023-04-01T09:44:00.948Z,11.35
2023-04-01T09:46:39.828Z,11.35
2023-04-01T09:49:31.241Z,11.33
2023-04-01T09:52:27.649Z,11.12
2023-04-01T09:55:08.468Z,11.42
2023-04-01T09:58:18.105Z,11.27
2023-04-01T10:01:05.720Z,11.24
2023-04-01T10:04:09.144Z,11.44
2023-04-01T10:07:10.407Z,11.23
2023-04-01T10:10:25.600Z,11.38
2023-04-01T10:13:27.298Z,11.49
2023-04-01T10:16:27.463Z,11.74
2023-04-01T10:19:31.647Z,11.44
2023-04-01T10:22:19.584Z,11.42
2023-04-01T10:25:06.540Z,11.46
2023-04-01T10:28:08.161Z,11.71
2023-04-01T10:31:13.167Z,11.78
2023-04-01T10:34:02.154Z,11.78
2023-04-01T10:36:55.128Z,11.88
2023-04-01T10:39:36.767Z,11.87
2023-04-01T10:42:43.085Z,12.17
2023-04-01T10:46:01.278Z,12.17
2023-04-01T10:49:00.915Z,11.63
2023-04-01T10:51:59.191Z,11.35
2023-04-01T10:54:47.481Z,11.36
2023-04-01T10:57:44.008Z,11.18
2023-04-01T11:00:46.986Z,11.33
2023-04-01T11:03:57.345Z,11.16
2023-04-01T11:07:12.203Z,11.17
2023-04-01T11:10:31.791Z,11.35
2023-04-01T11:13:41.324Z,11.56
2023-04-01T11:16:39.566Z,11.49
2023-04-01T11:19:39.660Z,11.61
2023-04-01T11:22:24.590Z,11.56
2023-04-01T11:25:19.676Z,11.34
2023-04-01T11:28:16.683Z,11.13
2023-04-01T11:30:59.627Z,11.26
2023-04-01T11:33:36.756Z,11.20
2023-04-01T11:36:27.965Z,11.47
2023-04-01T11:39:24.554Z,11.51
2023-04-01T11:42:00.534Z,11.58
2023-04-01T11:44:30.632Z,11.65
2023-04-01T11:47:16.698Z,11.59
2023-04-01T11:50:02.354Z,11.77
2023-04-01T11:52:44.579Z,11.67
2023-04-01T11:55:25.919Z,11.64
2023-04-01T11:58:07.178Z,11.40
2023-04-01T12:01:06.417Z,11.68
2023-04-01T12:03:53.810Z,11.83
2023-04-01T12:06:33.474Z,11.81
2023-04-01T12:09:06.177Z,11.88
2023-04-01T12:11:40.398Z,11.82
2023-04-01T12:14:18.105Z,12.07
2023-04-01T12:17:00.730Z,11.91
2023-04-01T12:19:38.748Z,11.95
2023-04-01T12:22:39.174Z,11.85
2023-04-01T12:25:23.816Z,11.81
2023-04-01T12:28:08.340Z,12.02
2023-04-01T12:30:48.974Z,12.07
2023-04-01T12:33:35.048Z,12.14
2023-04-01T12:36:15.902Z,12.04
2023-04-01T12:38:56.578Z,11.94
2023-04-01T12:41:33.463Z,11.66
2023-04-01T12:44:13.949Z,11.54
2023-04-01T12:46:57.050Z,11.84
2023-04-01T12:49:36.225Z,12.00
2023-04-01T12:52:11.515Z,12.24
2023-04-01T12:55:04.019Z,11.86
2023-04-01T12:58:07.501Z,12.13
2023-04-01T13:00:48.095Z,12.11
2023-04-01T13:03:40.943Z,12.20
2023-04-01T13:06:30.549Z,12.23
2023-04-01T13:09:07.934Z,12.09
2023-04-01T13:11:49.530Z,11.80
2023-04-01T13:14:35.789Z,12.10
2023-04-01T13:17:13.104Z,12.02
2023-04-01T13:20:02.079Z,11.69
2023-04-01T13:22:41.702Z,11.64
2023-04-01T13:25:22.198Z,11.83
2023-04-01T13:27:58.359Z,11.96
2023-04-01T13:30:30.176Z,12.23
2023-04-01T13:33:04.346Z,12.05
2023-04-01T13:35:41.140Z,11.88
2023-04-01T13:38:33.620Z,11.78
2023-04-01T13:41:08.381Z,11.93
2023-04-01T13:43:41.525Z,11.91
2023-04-01T13:46:25.942Z,11.97
2023-04-01T13:49:22.068Z,11.85
2023-04-01T13:52:19.562Z,12.00
2023-04-01T13:55:05.496Z,12.02
2023-04-01T13:58:04.799Z,12.03
2023-04-01T14:00:43.980Z,11.76
2023-04-01T14:03:40.009Z,11.55
2023-04-01T14:06:30.238Z,11.46
2023-04-01T14:09:13.706Z,11.54
2023-04-01T14:11:47.350Z,11.67
2023-04-01T14:14:25.785Z,11.85
2023-04-01T14:17:19.713Z,11.98
2023-04-01T14:20:04.287Z,12.08
2023-04-01T14:22:40.522Z,11.90
2023-04-01T14:25:33.617Z,12.03
2023-04-01T14:28:15.490Z,12.04
2023-04-01T14:31:17.650Z,11.66
2023-04-01T14:34:00.447Z,11.96
2023-04-01T14:36:49.411Z,11.90
2023-04-01T14:39:51.564Z,12.00
2023-04-01T14:42:32.631Z,12.09
2023-04-01T14:45:22.596Z,12.16
2023-04-01T14:47:54.803Z,12.21
2023-04-01T14:50:27.210Z,12.18
2023-04-01T14:53:01.001Z,12.23
2023-04-01T14:55:46.221Z,12.22
2023-04-01T14:58:15.458Z,12.09
2023-04-01T15:00:50.543Z,12.12
2023-04-01T15:03:25.132Z,12.13
2023-04-01T15:06:03.030Z,12.07
2023-04-01T15:08:34.178Z,11.92
2023-04-01T15:11:31.204Z,11.77
2023-04-01T15:14:39.171Z,11.88
2023-04-01T15:17:22.723Z,11.95
2023-04-01T15:20:12.419Z,11.88
2023-04-01T15:23:01.712Z,11.90
2023-04-01T15:25:41.472Z,11.92
2023-04-01T15:28:16.914Z,11.95
2023-04-01T15:30:52.517Z,11.98
2023-04-01T15:33:33.245Z,12.03
2023-04-01T15:36:10.736Z,11.96
2023-04-01T15:38:46.431Z,12.03
2023-04-01T15:41:17.852Z,12.00
2023-04-01T15:43:46.766Z,11.98
2023-04-01T15:46:28.539Z,12.06
2023-04-01T15:49:17.535Z,11.76
2023-04-01T15:52:00.392Z,11.80
2023-04-01T15:54:40.429Z,11.78
2023-04-01T15:57:30.594Z,11.85
2023-04-01T16:00:13.881Z,11.84
2023-04-01T16:02:49.919Z,11.86
2023-04-01T16:05:44.637Z,12.04
2023-04-01T16:08:51.010Z,12.03
2023-04-01T16:11:26.634Z,12.02
2023-04-01T16:14:05.409Z,11.87
2023-04-01T16:16:48.176Z,11.98
2023-04-01T16:19:36.366Z,11.80
2023-04-01T16:22:10.116Z,11.66
2023-04-01T16:24:44.166Z,11.63
2023-04-01T16:27:17.518Z,11.74
2023-04-01T16:29:50.762Z,11.80
2023-04-01T16:32:31.107Z,11.89
2023-04-01T16:35:20.980Z,11.86
2023-04-01T16:37:52.619Z,11.78
2023-04-01T16:40:35.968Z,11.92
2023-04-01T16:43:15.403Z,11.86
2023-04-01T16:45:49.263Z,11.83
2023-04-01T16:48:19.317Z,11.66
2023-04-01T16:50:55.821Z,11.81
2023-04-01T16:53:36.383Z,11.89
2023-04-01T16:56:13.152Z,11.92
2023-04-01T16:58:50.285Z,11.77
2023-04-01T17:01:24.204Z,11.70
2023-04-01T17:03:59.284Z,11.62
2023-04-01T17:06:33.644Z,11.57
2023-04-01T17:09:16.528Z,11.77
2023-04-01T17:11:50.692Z,11.79
2023-04-01T17:14:27.150Z,11.62
2023-04-01T17:17:03.445Z,11.79
2023-04-01T17:20:10.048Z,11.89
2023-04-01T17:22:44.403Z,11.80
2023-04-01T17:25:27.585Z,11.66
2023-04-01T17:28:00.982Z,11.61
2023-04-01T17:30:36.260Z,11.79
2023-04-01T17:33:32.098Z,11.77
2023-04-01T17:36:06.382Z,11.77
2023-04-01T17:38:53.887Z,11.55
2023-04-01T17:41:29.762Z,11.57
2023-04-01T17:44:03.541Z,11.59
2023-04-01T17:46:57.283Z,11.67
2023-04-01T17:49:32.825Z,11.56
2023-04-01T17:52:11.959Z,11.64
2023-04-01T17:54:48.418Z,11.63
2023-04-01T17:57:44.476Z,11.71
2023-04-01T18:00:25.549Z,11.57
2023-04-01T18:03:07.263Z,11.48
2023-04-01T18:05:52.937Z,11.51
2023-04-01T18:08:28.658Z,11.66
2023-04-01T18:11:07.675Z,11.57
2023-04-01T18:14:14.881Z,11.57
2023-04-01T18:17:04.021Z,11.72
2023-04-01T18:19:43.904Z,11.78
2023-04-01T18:22:20.841Z,11.74
2023-04-01T18:24:59.111Z,11.82
2023-04-01T18:27:32.888Z,11.80
2023-04-01T18:30:04.422Z,11.80
2023-04-01T18:32:37.790Z,11.30
2023-04-01T18:35:21.217Z,11.33
2023-04-01T18:37:56.251Z,11.42
2023-04-01T18:40:30.788Z,11.41
2023-04-01T18:43:11.002Z,11.49
2023-04-01T18:45:43.384Z,11.38
2023-04-01T18:48:34.489Z,11.43
2023-04-01T18:51:12.520Z,11.77
2023-04-01T18:53:44.452Z,11.92
2023-04-01T18:56:15.883Z,11.77
2023-04-01T18:58:50.152Z,11.89
2023-04-01T19:01:25.523Z,11.89
2023-04-01T19:04:12.135Z,11.91
2023-04-01T19:06:48.705Z,11.90
2023-04-01T19:09:23.369Z,11.76
2023-04-01T19:12:09.516Z,11.89
2023-04-01T19:14:53.301Z,11.78
2023-04-01T19:17:34.973Z,11.72
2023-04-01T19:20:12.704Z,11.86
2023-04-01T19:22:58.775Z,11.84
2023-04-01T19:25:37.673Z,11.58
2023-04-01T19:28:21.501Z,11.67
2023-04-01T19:30:55.967Z,11.55
2023-04-01T19:33:53.861Z,11.61
2023-04-01T19:36:31.558Z,11.85
2023-04-01T19:39:17.031Z,12.01
2023-04-01T19:41:52.395Z,11.93
2023-04-01T19:44:32.855Z,12.06
2023-04-01T19:47:09.776Z,11.88
2023-04-01T19:49:52.418Z,11.66
2023-04-01T19:52:28.147Z,11.65
2023-04-01T19:55:03.182Z,11.69
2023-04-01T19:57:40.350Z,11.57
2023-04-01T20:00:18.004Z,11.65
2023-04-01T20:02:57.954Z,11.80
2023-04-01T20:05:37.041Z,11.90
2023-04-01T20:08:14.333Z,11.62
2023-04-01T20:10:50.061Z,11.53
2023-04-01T20:13:28.145Z,11.35
2023-04-01T20:16:03.813Z,11.58
2023-04-01T20:18:40.215Z,11.66
2023-04-01T20:21:20.589Z,11.66
2023-04-01T20:23:54.564Z,11.57
2023-04-01T20:26:27.673Z,11.76
2023-04-01T20:29:14.362Z,11.91
2023-04-01T20:31:43.609Z,11.57
2023-04-01T20:34:37.953Z,11.67
2023-04-01T20:37:23.238Z,11.34
2023-04-01T20:40:19.262Z,11.38
2023-04-01T20:43:04.248Z,11.50
2023-04-01T20:45:39.880Z,11.31
2023-04-01T20:48:29.532Z,11.28
2023-04-01T20:51:00.943Z,11.31
2023-04-01T20:53:33.156Z,11.45
2023-04-01T20:56:31.069Z,11.51
2023-04-01T20:59:18.551Z,11.56
2023-04-01T21:01:56.638Z,11.45
2023-04-01T21:04:30.140Z,11.34
2023-04-01T21:07:14.998Z,11.43
2023-04-01T21:09:53.805Z,11.49
2023-04-01T21:12:32.412Z,11.29
2023-04-01T21:15:23.757Z,11.30
2023-04-01T21:18:06.353Z,11.22
2023-04-01T21:21:06.521Z,11.29
2023-04-01T21:23:49.273Z,10.86
2023-04-01T21:26:28.834Z,10.91
2023-04-01T21:29:19.867Z,10.83
2023-04-01T21:32:17.298Z,10.46
2023-04-01T21:34:53.017Z,10.57
2023-04-01T21:37:43.481Z,10.52
2023-04-01T21:40:37.850Z,10.72
2023-04-01T21:43:17.266Z,10.69
2023-04-01T21:46:06.715Z,10.70
2023-04-01T21:48:51.659Z,10.78
2023-04-01T21:51:57.586Z,10.73
2023-04-01T21:54:57.718Z,10.42
2023-04-01T21:57:57.007Z,10.32
2023-04-01T22:00:27.672Z,10.37
2023-04-01T22:03:27.187Z,10.38
2023-04-01T22:06:02.495Z,10.08
2023-04-01T22:08:42.036Z,10.27
2023-04-01T22:11:22.735Z,9.99
2023-04-01T22:13:52.677Z,9.91
2023-04-01T22:16:26.580Z,10.00
2023-04-01T22:19:03.154Z,10.00
2023-04-01T22:21:40.505Z,10.11
2023-04-01T22:24:19.947Z,10.25
2023-04-01T22:26:57.948Z,10.38
2023-04-01T22:29:30.484Z,10.36
2023-04-01T22:32:02.717Z,9.98
2023-04-01T22:34:40.736Z,10.08
2023-04-01T22:37:19.844Z,10.10
2023-04-01T22:40:10.830Z,10.13
2023-04-01T22:42:45.493Z,10.15
2023-04-01T22:45:32.173Z,10.05
2023-04-01T22:48:10.934Z,9.75
2023-04-01T22:50:44.009Z,9.59
2023-04-01T22:53:25.850Z,9.61
2023-04-01T22:55:55.293Z,9.63
2023-04-01T22:58:32.362Z,9.50
2023-04-01T23:01:03.708Z,9.57
2023-04-01T23:03:33.934Z,9.51
2023-04-01T23:06:03.971Z,9.70
2023-04-01T23:09:10.060Z,9.82
2023-04-01T23:11:45.391Z,9.58
2023-04-01T23:14:49.741Z,9.66
2023-04-01T23:17:48.015Z,9.41
2023-04-01T23:20:24.405Z,9.42
2023-04-01T23:23:01.549Z,9.52
2023-04-01T23:25:45.680Z,9.51
2023-04-01T23:28:55.017Z,8.98
2023-04-01T23:31:45.286Z,8.92
2023-04-01T23:34:29.484Z,8.83
2023-04-01T23:36:59.598Z,8.97
2023-04-01T23:39:31.260Z,8.71
2023-04-01T23:42:02.222Z,8.80
2023-04-01T23:44:30.873Z,8.99
2023-04-01T23:47:01.600Z,9.12
2023-04-01T23:49:36.294Z,8.95
2023-04-01T23:52:11.676Z,8.97
2023-04-01T23:54:45.062Z,9.12
2023-04-01T23:57:15.276Z,9.08
2023-04-01T23:59:42.890Z,9.19
